Time;durP1;ratioP1;P1;durP2;ratioP2;P2;SDS_P1;SDS_P2;PMS_P1;PMS_P2;Temp;Humidity;BMP_temperature;BMP_pressure;BME280_temperature;BME280_humidity;BME280_pressure;Samples;Min_cycle;Max_cycle;Signal;HPM_P1;HPM_P2
2021/01/08 00:02:16;;;;;;;14.95;5.35;;;6.00;46.40;;;;;;7713276;23;20023;-68
2021/01/08 00:05:17;;;;;;;10.65;5.32;;;5.90;46.50;;;;;;7687126;23;20067;-68
2021/01/08 00:08:19;;;;;;;9.68;4.43;;;5.90;46.60;;;;;;7685800;23;20013;-70
2021/01/08 00:11:20;;;;;;;11.85;5.22;;;5.90;46.60;;;;;;7686400;23;20004;-70
2021/01/08 00:14:21;;;;;;;10.45;4.57;;;5.90;46.80;;;;;;7687614;23;20691;-70
2021/01/08 00:17:25;;;;;;;9.23;4.18;;;5.90;46.70;;;;;;7686986;23;20418;-70
2021/01/08 00:20:25;;;;;;;9.20;4.18;;;5.80;46.70;;;;;;7687007;23;20432;-73
2021/01/08 00:23:26;;;;;;;9.32;4.28;;;5.80;46.80;;;;;;7686510;23;20016;-70
2021/01/08 00:26:27;;;;;;;11.80;4.82;;;5.80;46.80;;;;;;7686758;23;20016;-68
2021/01/08 00:29:29;;;;;;;12.07;4.38;;;5.80;46.90;;;;;;7687044;23;20096;-68
2021/01/08 00:32:29;;;;;;;7.32;4.15;;;5.80;46.90;;;;;;7712532;23;20017;-69
2021/01/08 00:35:30;;;;;;;9.73;5.15;;;5.80;46.90;;;;;;7687290;23;20013;-68
2021/01/08 00:38:31;;;;;;;14.23;5.25;;;5.80;46.90;;;;;;7686563;23;20036;-69
2021/01/08 00:41:33;;;;;;;7.55;3.72;;;5.80;47.00;;;;;;7686721;23;20012;-69
2021/01/08 00:44:34;;;;;;;8.27;4.28;;;5.80;47.00;;;;;;7686811;23;20019;-69
2021/01/08 00:47:35;;;;;;;13.80;4.70;;;5.90;47.10;;;;;;7687134;23;20607;-69
2021/01/08 00:50:36;;;;;;;11.38;5.32;;;5.90;47.00;;;;;;7687038;23;20024;-69
2021/01/08 00:53:40;;;;;;;15.20;4.68;;;5.90;47.00;;;;;;7661014;23;20024;-69
2021/01/08 00:56:41;;;;;;;12.02;5.25;;;5.90;47.00;;;;;;7687050;23;20412;-69
2021/01/08 01:00:09;;;;;;;12.30;4.32;;;5.90;46.90;;;;;;7706115;23;20024;-69
2021/01/08 01:03:10;;;;;;;7.55;4.50;;;5.90;46.90;;;;;;7684888;23;20020;-69
2021/01/08 01:06:11;;;;;;;10.27;4.50;;;6.00;46.90;;;;;;7686400;23;20016;-69
2021/01/08 01:09:12;;;;;;;9.77;4.82;;;6.00;46.80;;;;;;7685775;23;20047;-69
2021/01/08 01:12:13;;;;;;;13.65;5.30;;;5.90;46.80;;;;;;7692839;23;20013;-69
2021/01/08 01:15:17;;;;;;;12.23;4.25;;;5.90;46.90;;;;;;7665756;23;20270;-69
2021/01/08 01:18:19;;;;;;;10.50;4.60;;;6.00;46.80;;;;;;7712898;23;20082;-71
2021/01/08 01:21:20;;;;;;;14.15;4.22;;;6.00;46.80;;;;;;7687715;23;20024;-69
2021/01/08 01:24:21;;;;;;;10.43;4.25;;;5.90;46.80;;;;;;7688990;23;20066;-69
2021/01/08 01:27:22;;;;;;;19.98;4.60;;;6.00;46.80;;;;;;7689178;23;20068;-69
2021/01/08 01:30:23;;;;;;;7.97;3.70;;;5.90;46.70;;;;;;7688996;23;20013;-70
2021/01/08 01:33:24;;;;;;;14.50;4.68;;;6.00;46.70;;;;;;7689021;23;20112;-69
2021/01/08 01:36:25;;;;;;;13.27;4.72;;;6.00;46.70;;;;;;7715145;23;20013;-69
2021/01/08 01:39:26;;;;;;;10.27;5.10;;;5.90;46.90;;;;;;7714767;23;20120;-70
2021/01/08 01:42:26;;;;;;;17.02;4.88;;;5.90;47.00;;;;;;7715270;23;20013;-69
2021/01/08 01:45:27;;;;;;;10.38;4.55;;;5.90;47.10;;;;;;7688854;23;20065;-69
2021/01/08 01:48:28;;;;;;;10.57;4.47;;;5.90;47.10;;;;;;7688682;23;20408;-69
2021/01/08 01:51:30;;;;;;;9.38;5.03;;;5.90;47.10;;;;;;7686949;23;20008;-69
2021/01/08 01:54:31;;;;;;;12.65;5.15;;;5.80;47.20;;;;;;7687729;23;20317;-70
2021/01/08 01:57:32;;;;;;;7.40;4.00;;;5.80;47.20;;;;;;7663954;23;20016;-69
2021/01/08 02:00:32;;;;;;;12.40;5.35;;;5.80;47.20;;;;;;7714793;23;20040;-69
2021/01/08 02:03:36;;;;;;;10.93;4.90;;;5.70;47.20;;;;;;7715157;23;20083;-70
2021/01/08 02:06:38;;;;;;;8.65;4.30;;;5.70;47.30;;;;;;7688020;23;20047;-71
2021/01/08 02:09:40;;;;;;;12.07;4.75;;;5.70;47.40;;;;;;7713061;23;20024;-68
2021/01/08 02:12:44;;;;;;;8.65;3.45;;;5.60;47.40;;;;;;7688072;23;20028;-69
2021/01/08 02:15:46;;;;;;;11.07;5.07;;;5.60;47.50;;;;;;7687422;23;20044;-71
2021/01/08 02:18:51;;;;;;;10.23;4.75;;;5.60;47.90;;;;;;7688591;23;20091;-67
2021/01/08 02:21:57;;;;;;;12.07;5.00;;;5.60;48.30;;;;;;7689036;23;20012;-69
2021/01/08 02:25:20;;;;;;;15.02;4.78;;;5.50;48.40;;;;;;7714363;23;20036;-68
2021/01/08 02:28:24;;;;;;;9.60;4.47;;;5.50;48.50;;;;;;7687276;23;20447;-71
2021/01/08 02:31:25;;;;;;;10.98;4.90;;;5.50;48.50;;;;;;7713587;23;20013;-71
2021/01/08 02:34:27;;;;;;;10.98;4.43;;;5.50;48.50;;;;;;7687731;23;20025;-68
2021/01/08 02:37:32;;;;;;;12.20;4.20;;;5.50;48.50;;;;;;7685658;23;20024;-68
2021/01/08 02:40:33;;;;;;;7.78;3.47;;;5.50;48.50;;;;;;7687995;23;20465;-70
2021/01/08 02:43:34;;;;;;;12.55;5.22;;;5.50;48.60;;;;;;7713919;23;20055;-69
2021/01/08 02:46:35;;;;;;;9.63;4.40;;;5.50;48.60;;;;;;7663673;23;20013;-69
2021/01/08 02:49:36;;;;;;;10.55;3.95;;;5.40;48.60;;;;;;7687202;23;20025;-70
2021/01/08 02:52:42;;;;;;;11.73;4.30;;;5.40;48.60;;;;;;7713248;23;20435;-69
2021/01/08 02:55:53;;;;;;;10.35;4.65;;;5.30;48.70;;;;;;7714102;23;20304;-69
2021/01/08 02:58:55;;;;;;;12.65;4.72;;;5.30;48.80;;;;;;7687808;23;20020;-70
2021/01/08 03:01:58;;;;;;;10.93;4.28;;;5.30;48.90;;;;;;7687681;23;20420;-69
2021/01/08 03:04:59;;;;;;;8.48;3.90;;;5.30;48.90;;;;;;7687835;23;20004;-68
2021/01/08 03:08:00;;;;;;;6.95;3.45;;;5.30;48.70;;;;;;7712988;23;20009;-69
2021/01/08 03:11:08;;;;;;;11.68;4.15;;;5.30;48.20;;;;;;7713123;23;20023;-69
2021/01/08 03:14:09;;;;;;;7.27;3.97;;;5.30;47.90;;;;;;7687775;23;20017;-68
2021/01/08 03:17:10;;;;;;;11.52;4.47;;;5.30;47.80;;;;;;7687757;23;20012;-69
2021/01/08 03:20:12;;;;;;;10.00;3.83;;;5.30;47.80;;;;;;7713207;23;20020;-69
2021/01/08 03:23:13;;;;;;;6.80;3.70;;;5.30;47.80;;;;;;7687791;23;20489;-68
2021/01/08 03:26:13;;;;;;;8.55;3.55;;;5.30;47.80;;;;;;7687951;23;20021;-69
2021/01/08 03:29:14;;;;;;;8.98;3.70;;;5.30;47.90;;;;;;7663248;23;20092;-69
2021/01/08 03:32:15;;;;;;;13.27;5.07;;;5.20;48.00;;;;;;7687614;23;20428;-69
2021/01/08 03:35:16;;;;;;;10.80;5.22;;;5.30;48.30;;;;;;7687606;23;20020;-69
2021/01/08 03:38:17;;;;;;;11.68;4.93;;;5.20;48.80;;;;;;7687758;23;20019;-69
2021/01/08 03:41:18;;;;;;;15.57;5.65;;;5.20;49.80;;;;;;7713420;23;20004;-70
2021/01/08 03:44:19;;;;;;;11.27;4.88;;;5.20;50.10;;;;;;7713195;23;20083;-69
2021/01/08 03:47:20;;;;;;;14.90;5.53;;;5.20;50.40;;;;;;7687809;23;20019;-69
2021/01/08 03:50:21;;;;;;;11.85;4.75;;;5.20;50.60;;;;;;7713366;23;20360;-69
2021/01/08 03:53:21;;;;;;;10.52;5.15;;;5.10;50.90;;;;;;7687049;23;20024;-69
2021/01/08 03:56:22;;;;;;;11.60;5.03;;;5.10;51.00;;;;;;7712936;23;20020;-69
2021/01/08 03:59:23;;;;;;;12.95;3.72;;;5.10;51.20;;;;;;7684721;23;20405;-70
2021/01/08 04:02:24;;;;;;;10.88;4.72;;;5.10;51.50;;;;;;7687225;23;20020;-69
2021/01/08 04:05:25;;;;;;;11.70;5.18;;;5.00;51.60;;;;;;7685800;23;20039;-69
2021/01/08 04:08:26;;;;;;;14.05;5.55;;;4.90;51.70;;;;;;7687519;23;20009;-69
2021/01/08 04:11:27;;;;;;;13.57;5.25;;;4.90;51.70;;;;;;7662366;23;20028;-69
2021/01/08 04:14:28;;;;;;;12.70;4.15;;;4.90;51.90;;;;;;7688701;23;20420;-69
2021/01/08 04:17:28;;;;;;;16.80;6.05;;;4.90;51.90;;;;;;7714811;23;20023;-69
2021/01/08 04:20:29;;;;;;;13.52;4.78;;;4.90;52.00;;;;;;7687600;23;20112;-69
2021/01/08 04:23:30;;;;;;;11.68;4.75;;;4.80;52.00;;;;;;7687396;23;20017;-69
2021/01/08 04:26:31;;;;;;;11.95;5.20;;;4.80;52.00;;;;;;7686609;23;20031;-69
2021/01/08 04:29:32;;;;;;;12.35;5.55;;;4.80;52.10;;;;;;7712694;23;20016;-69
2021/01/08 04:32:33;;;;;;;9.02;4.30;;;4.70;52.10;;;;;;7712590;23;20154;-69
2021/01/08 04:35:34;;;;;;;12.15;4.50;;;4.70;52.20;;;;;;7714319;23;20448;-69
2021/01/08 04:38:37;;;;;;;13.52;4.88;;;4.70;52.30;;;;;;7688782;23;20087;-69
2021/01/08 04:41:38;;;;;;;13.98;5.55;;;4.70;52.20;;;;;;7712449;23;20008;-69
2021/01/08 04:44:39;;;;;;;13.05;6.15;;;4.70;52.20;;;;;;7687181;23;20008;-69
2021/01/08 04:47:41;;;;;;;12.18;3.90;;;4.80;52.30;;;;;;7686848;23;20116;-69
2021/01/08 04:50:42;;;;;;;17.42;6.47;;;4.70;52.30;;;;;;7712197;23;20028;-69
2021/01/08 04:58:10;;;;;;;9.55;4.07;;;4.70;52.30;;;;;;7711619;23;20024;-69
2021/01/08 05:01:11;;;;;;;9.05;3.55;;;4.70;52.40;;;;;;7686687;23;20099;-69
2021/01/08 05:04:12;;;;;;;10.32;4.97;;;4.60;52.30;;;;;;7712699;23;20027;-69
2021/01/08 05:07:13;;;;;;;10.07;4.75;;;4.60;52.40;;;;;;7712634;23;20078;-70
2021/01/08 05:10:14;;;;;;;7.53;4.32;;;4.60;52.50;;;;;;7712434;23;20025;-68
2021/01/08 05:13:15;;;;;;;7.95;3.58;;;4.60;52.50;;;;;;7712049;23;20025;-70
2021/01/08 05:16:16;;;;;;;12.63;4.38;;;4.60;52.40;;;;;;7686801;23;20428;-69
2021/01/08 05:19:18;;;;;;;10.32;4.22;;;4.60;52.30;;;;;;7712398;23;20043;-69
2021/01/08 05:22:19;;;;;;;8.70;4.13;;;4.50;52.10;;;;;;7686242;23;20004;-69
2021/01/08 05:25:21;;;;;;;10.50;5.45;;;4.50;52.00;;;;;;7686718;23;20020;-70
2021/01/08 05:28:22;;;;;;;8.52;3.88;;;4.50;52.00;;;;;;7646792;23;20009;-69
2021/01/08 05:31:27;;;;;;;11.75;4.45;;;4.50;52.00;;;;;;7712568;23;20063;-70
2021/01/08 05:34:29;;;;;;;11.77;4.63;;;4.40;52.10;;;;;;7686296;23;20107;-69
2021/01/08 05:37:30;;;;;;;10.02;4.20;;;4.40;52.30;;;;;;7685879;23;20106;-69
2021/01/08 05:40:32;;;;;;;11.95;4.57;;;4.30;52.40;;;;;;7685640;23;20465;-69
2021/01/08 05:43:33;;;;;;;9.23;4.07;;;4.30;52.40;;;;;;7712227;23;20059;-69
2021/01/08 05:46:34;;;;;;;15.88;4.80;;;4.30;52.60;;;;;;7686128;23;20115;-69
2021/01/08 05:49:36;;;;;;;10.90;3.95;;;4.30;52.80;;;;;;7711927;23;20045;-69
2021/01/08 05:52:42;;;;;;;7.25;3.60;;;4.30;52.90;;;;;;7685907;23;20047;-69
2021/01/08 05:55:44;;;;;;;12.27;4.75;;;4.30;52.90;;;;;;7686132;23;20108;-69
2021/01/08 05:58:46;;;;;;;9.57;4.75;;;4.20;52.80;;;;;;7686345;23;20326;-68
2021/01/08 06:01:47;;;;;;;8.13;3.67;;;4.20;52.80;;;;;;7685045;23;20116;-69
2021/01/08 06:04:48;;;;;;;9.80;4.18;;;4.20;52.80;;;;;;7712737;23;20020;-69
2021/01/08 06:07:50;;;;;;;7.47;3.92;;;4.20;52.90;;;;;;7686340;23;20017;-69
2021/01/08 06:10:53;;;;;;;9.52;4.75;;;4.20;52.90;;;;;;7714173;23;20036;-69
2021/01/08 06:14:02;;;;;;;12.65;4.53;;;4.20;52.90;;;;;;7713512;23;20020;-70
2021/01/08 06:17:04;;;;;;;10.90;4.65;;;4.10;52.90;;;;;;7712662;23;20032;-71
2021/01/08 06:20:06;;;;;;;13.50;3.90;;;4.10;53.10;;;;;;7686430;23;20013;-73
2021/01/08 06:23:07;;;;;;;10.90;4.07;;;4.10;53.20;;;;;;7687540;23;20008;-74
2021/01/08 06:26:16;;;;;;;12.48;4.00;;;4.00;53.20;;;;;;7688452;23;20012;-72
2021/01/08 06:29:26;;;;;;;12.82;4.30;;;4.00;53.20;;;;;;7675397;23;20020;-72
2021/01/08 06:32:32;;;;;;;11.68;4.80;;;4.00;53.30;;;;;;7687680;23;20019;-74
2021/01/08 06:35:33;;;;;;;15.05;4.78;;;4.00;53.30;;;;;;7686511;23;20073;-74
2021/01/08 06:38:40;;;;;;;8.68;3.80;;;4.00;53.30;;;;;;7638107;23;20021;-73
2021/01/08 06:41:50;;;;;;;6.95;4.15;;;4.00;53.40;;;;;;7713534;23;20025;-73
2021/01/08 06:44:52;;;;;;;10.93;4.20;;;4.00;53.50;;;;;;7687865;23;20025;-74
2021/01/08 06:48:01;;;;;;;7.57;3.47;;;4.00;53.60;;;;;;7671290;23;20099;-74
2021/01/08 06:51:06;;;;;;;9.32;3.58;;;3.90;53.60;;;;;;7687077;23;20094;-73
2021/01/08 06:54:08;;;;;;;11.88;3.90;;;3.90;53.70;;;;;;7688701;23;20326;-73
2021/01/08 06:57:19;;;;;;;12.70;5.20;;;3.90;53.80;;;;;;7688194;23;20017;-74
2021/01/08 07:00:29;;;;;;;14.85;4.57;;;3.90;53.90;;;;;;7713449;23;20009;-72
2021/01/08 07:03:31;;;;;;;11.40;3.40;;;3.80;54.00;;;;;;7713449;23;20415;-73
2021/01/08 07:06:36;;;;;;;8.57;4.18;;;3.80;54.00;;;;;;7687747;23;20020;-72
2021/01/08 07:09:38;;;;;;;9.27;3.65;;;3.80;54.00;;;;;;7686030;23;20012;-72
2021/01/08 07:12:42;;;;;;;8.15;3.95;;;3.80;54.00;;;;;;7687119;23;20056;-73
2021/01/08 07:15:44;;;;;;;8.32;4.03;;;3.80;53.90;;;;;;7687554;23;20016;-73
2021/01/08 07:18:46;;;;;;;10.35;4.05;;;3.80;53.90;;;;;;7686497;23;20042;-72
2021/01/08 07:21:52;;;;;;;9.20;4.10;;;3.80;53.90;;;;;;7687013;23;20345;-74
2021/01/08 07:24:53;;;;;;;8.57;4.22;;;3.80;53.90;;;;;;7687618;23;20032;-75
2021/01/08 07:27:54;;;;;;;8.27;3.88;;;3.90;53.90;;;;;;7686701;23;20095;-73
2021/01/08 07:31:08;;;;;;;12.93;4.25;;;3.90;53.90;;;;;;7713268;23;20416;-73
2021/01/08 07:34:10;;;;;;;6.90;4.38;;;3.90;54.00;;;;;;7712125;23;20454;-75
2021/01/08 07:37:11;;;;;;;11.75;4.57;;;3.90;54.00;;;;;;7660390;23;20020;-76
2021/01/08 07:40:17;;;;;;;8.73;4.03;;;3.90;54.10;;;;;;7687479;23;20020;-73
2021/01/08 07:43:18;;;;;;;6.40;3.95;;;3.90;54.20;;;;;;7686962;23;20016;-75
2021/01/08 07:46:26;;;;;;;15.27;4.50;;;3.80;54.20;;;;;;7685114;23;20043;-73
2021/01/08 07:49:28;;;;;;;10.48;4.50;;;3.80;54.40;;;;;;7661728;23;20024;-75
2021/01/08 07:52:39;;;;;;;11.63;4.25;;;3.80;54.60;;;;;;7662180;23;20356;-74
2021/01/08 07:55:45;;;;;;;7.70;3.85;;;3.80;54.60;;;;;;7652032;23;20017;-74
2021/01/08 07:59:00;;;;;;;9.00;4.82;;;3.80;54.70;;;;;;7708362;23;20016;-74
2021/01/08 08:02:01;;;;;;;12.75;5.00;;;3.80;54.80;;;;;;7686450;23;20312;-74
2021/01/08 08:05:06;;;;;;;10.90;5.55;;;3.80;54.80;;;;;;7686685;23;20020;-73
2021/01/08 08:08:09;;;;;;;11.85;5.68;;;3.80;54.70;;;;;;7710740;23;20016;-73
2021/01/08 08:11:19;;;;;;;8.02;3.97;;;3.90;54.70;;;;;;7685283;23;20344;-74
2021/01/08 08:14:21;;;;;;;8.55;4.38;;;3.90;54.50;;;;;;7685343;23;20074;-73
2021/01/08 08:17:23;;;;;;;10.63;4.45;;;3.90;54.30;;;;;;7669205;23;20020;-74
2021/01/08 08:20:24;;;;;;;9.93;3.97;;;3.90;54.10;;;;;;7662360;23;20023;-73
2021/01/08 08:23:25;;;;;;;17.50;5.50;;;3.90;53.90;;;;;;7685454;23;20035;-73
2021/01/08 08:26:27;;;;;;;16.40;5.60;;;3.90;53.70;;;;;;7688903;23;20423;-76
2021/01/08 08:29:29;;;;;;;10.95;3.95;;;3.90;53.40;;;;;;7699716;23;20019;-73
2021/01/08 08:32:30;;;;;;;7.95;4.10;;;3.90;53.40;;;;;;7699842;23;20016;-75
2021/01/08 08:35:41;;;;;;;12.32;6.15;;;4.00;53.20;;;;;;7691222;23;20019;-75
2021/01/08 08:38:57;;;;;;;10.07;3.90;;;4.00;52.90;;;;;;7688144;23;20065;-74
2021/01/08 08:41:58;;;;;;;10.40;4.72;;;4.00;52.60;;;;;;7711526;23;20012;-74
2021/01/08 08:44:59;;;;;;;14.52;4.68;;;4.00;52.40;;;;;;7659657;23;20004;-75
2021/01/08 08:48:05;;;;;;;16.98;5.60;;;4.10;52.40;;;;;;7655415;23;20052;-77
2021/01/08 08:51:06;;;;;;;10.25;4.57;;;4.20;52.40;;;;;;7647331;23;20020;-73
2021/01/08 08:54:07;;;;;;;8.55;4.18;;;4.20;52.20;;;;;;7709977;23;20035;-73
2021/01/08 08:57:09;;;;;;;15.40;6.18;;;4.30;51.70;;;;;;7659048;23;20412;-75
2021/01/08 09:00:18;;;;;;;9.88;4.38;;;4.30;51.40;;;;;;7683414;23;20023;-75
2021/01/08 09:03:25;;;;;;;19.50;5.85;;;4.40;51.40;;;;;;7684118;23;20320;-74
2021/01/08 09:06:27;;;;;;;14.05;5.30;;;4.50;51.30;;;;;;7683350;23;20036;-72
2021/01/08 09:09:33;;;;;;;10.85;4.60;;;4.50;51.10;;;;;;7683295;23;20020;-74
2021/01/08 09:13:09;;;;;;;16.60;5.05;;;4.60;51.00;;;;;;7683428;23;20090;-73
2021/01/08 09:16:25;;;;;;;7.47;3.97;;;4.60;50.80;;;;;;7656733;23;20021;-74
2021/01/08 09:19:51;;;;;;;8.45;3.70;;;4.50;50.60;;;;;;7671708;23;20416;-74
2021/01/08 09:22:52;;;;;;;11.52;4.97;;;4.60;50.60;;;;;;7681532;23;20020;-75
2021/01/08 09:25:53;;;;;;;17.52;6.20;;;4.60;50.60;;;;;;7682420;23;20020;-74
2021/01/08 09:28:55;;;;;;;11.93;4.68;;;4.60;50.60;;;;;;7708143;23;20867;-73
2021/01/08 09:32:00;;;;;;;14.18;6.05;;;4.70;50.60;;;;;;7682020;23;20016;-74
2021/01/08 09:35:08;;;;;;;12.43;5.00;;;4.80;50.30;;;;;;7682338;23;20012;-73
2021/01/08 09:38:14;;;;;;;12.75;4.43;;;4.90;50.00;;;;;;7683044;23;20384;-78
2021/01/08 09:41:15;;;;;;;10.20;4.80;;;4.90;49.80;;;;;;7684016;23;20083;-74
2021/01/08 09:44:16;;;;;;;7.10;3.97;;;5.00;49.80;;;;;;7685159;23;20288;-73
2021/01/08 09:47:17;;;;;;;11.82;5.20;;;5.00;49.70;;;;;;7685388;23;20334;-73
2021/01/08 09:50:29;;;;;;;12.35;5.40;;;5.00;49.60;;;;;;7660977;23;20102;-73
2021/01/08 09:53:31;;;;;;;16.42;6.95;;;5.10;49.60;;;;;;7710863;23;20416;-74
2021/01/08 09:56:32;;;;;;;12.85;6.45;;;5.10;49.50;;;;;;7686322;23;20025;-75
2021/01/08 09:59:33;;;;;;;16.67;6.80;;;5.10;49.10;;;;;;7710597;23;20020;-75
2021/01/08 10:02:48;;;;;;;8.93;4.60;;;5.20;49.10;;;;;;7683964;23;20012;-74
2021/01/08 10:05:49;;;;;;;11.85;5.45;;;5.20;49.10;;;;;;7686523;23;20091;-74
2021/01/08 10:09:02;;;;;;;11.15;5.55;;;5.20;49.00;;;;;;7686159;23;20494;-72
2021/01/08 10:12:04;;;;;;;6.30;3.25;;;5.40;49.10;;;;;;7687085;23;20040;-73
2021/01/08 10:15:08;;;;;;;7.43;3.88;;;5.50;48.60;;;;;;7685344;23;20359;-73
2021/01/08 10:18:16;;;;;;;17.58;6.55;;;5.50;47.60;;;;;;7711560;23;20019;-72
2021/01/08 10:21:21;;;;;;;8.38;3.78;;;5.60;47.70;;;;;;7686164;23;20017;-73
2021/01/08 10:24:26;;;;;;;15.63;7.00;;;5.70;47.70;;;;;;7686686;23;20392;-73
2021/01/08 10:27:27;;;;;;;11.85;5.40;;;5.90;47.30;;;;;;7685665;23;20036;-73
2021/01/08 10:30:28;;;;;;;11.15;5.20;;;6.00;47.10;;;;;;7647414;23;20065;-73
2021/01/08 10:33:29;;;;;;;15.13;5.40;;;6.10;46.80;;;;;;7686109;23;20017;-72
2021/01/08 10:36:32;;;;;;;16.80;5.50;;;6.30;46.40;;;;;;7685858;23;20012;-75
2021/01/08 10:39:33;;;;;;;12.75;4.80;;;6.30;45.90;;;;;;7684934;23;20095;-73
2021/01/08 10:42:33;;;;;;;8.73;5.07;;;6.40;45.80;;;;;;7685367;23;20413;-74
2021/01/08 10:45:35;;;;;;;10.60;4.72;;;6.60;45.50;;;;;;7711300;23;20423;-72
2021/01/08 10:48:35;;;;;;;11.80;5.18;;;6.80;45.00;;;;;;7646421;23;20499;-73
2021/01/08 10:51:36;;;;;;;15.07;5.88;;;7.00;44.30;;;;;;7684654;23;20028;-73
2021/01/08 10:54:37;;;;;;;16.38;5.75;;;7.10;43.80;;;;;;7710282;23;20043;-72
2021/01/08 10:57:39;;;;;;;15.45;5.97;;;7.20;43.70;;;;;;7685683;23;20123;-73
2021/01/08 11:00:40;;;;;;;15.88;6.35;;;7.50;43.60;;;;;;7685699;23;20016;-74
2021/01/08 11:03:41;;;;;;;9.43;4.30;;;7.80;43.30;;;;;;7711868;23;20017;-72
2021/01/08 11:06:42;;;;;;;22.15;6.82;;;8.10;42.70;;;;;;7683105;23;20034;-73
2021/01/08 11:09:43;;;;;;;12.15;5.80;;;8.30;42.10;;;;;;7685267;23;20415;-73
2021/01/08 11:12:44;;;;;;;12.45;5.50;;;8.50;41.80;;;;;;7686636;23;20120;-73
2021/01/08 11:15:45;;;;;;;12.65;5.32;;;8.80;41.10;;;;;;7715842;23;20021;-73
2021/01/08 11:18:46;;;;;;;10.10;4.47;;;9.20;40.30;;;;;;7690436;23;20103;-73
2021/01/08 11:21:52;;;;;;;11.85;4.30;;;9.60;39.50;;;;;;7720929;23;20021;-73
2021/01/08 11:24:53;;;;;;;18.83;6.82;;;10.10;38.70;;;;;;7647009;23;20027;-74
2021/01/08 11:27:53;;;;;;;17.50;6.32;;;10.40;37.50;;;;;;7686099;23;20020;-73
2021/01/08 11:30:54;;;;;;;12.88;5.68;;;10.70;36.60;;;;;;7684403;23;20020;-74
2021/01/08 11:33:55;;;;;;;24.10;7.93;;;11.00;35.80;;;;;;7709830;23;20030;-75
2021/01/08 11:36:57;;;;;;;13.07;5.47;;;11.10;35.80;;;;;;7659871;23;20063;-73
2021/01/08 11:39:58;;;;;;;11.48;5.15;;;11.30;34.90;;;;;;7685275;23;20016;-73
2021/01/08 11:42:59;;;;;;;11.80;5.45;;;11.20;35.70;;;;;;7684744;23;20446;-72
2021/01/08 11:45:59;;;;;;;9.30;4.50;;;11.20;34.90;;;;;;7711006;23;20020;-75
2021/01/08 11:49:01;;;;;;;12.80;6.03;;;11.30;34.60;;;;;;7658721;23;20026;-73
2021/01/08 11:52:02;;;;;;;10.38;5.05;;;11.40;34.30;;;;;;7685342;23;20024;-72
2021/01/08 11:55:04;;;;;;;30.33;10.38;;;11.40;33.40;;;;;;7683640;23;20088;-75
2021/01/08 11:58:05;;;;;;;13.43;5.45;;;10.90;33.90;;;;;;7685613;23;20008;-73
2021/01/08 12:01:07;;;;;;;18.25;7.38;;;10.40;34.80;;;;;;7711301;23;20013;-73
2021/01/08 12:04:09;;;;;;;12.90;6.75;;;10.00;35.50;;;;;;7685632;23;20411;-73
2021/01/08 12:07:10;;;;;;;9.52;4.45;;;9.60;36.30;;;;;;7685369;23;20004;-73
2021/01/08 12:10:11;;;;;;;12.70;4.65;;;9.20;36.70;;;;;;7686541;23;20376;-74
2021/01/08 12:13:12;;;;;;;10.95;4.38;;;8.80;37.50;;;;;;7685766;23;20020;-74
2021/01/08 12:16:13;;;;;;;12.70;5.03;;;8.50;38.20;;;;;;7713968;23;20082;-73
2021/01/08 12:19:15;;;;;;;10.00;5.03;;;8.30;38.80;;;;;;7688940;23;20020;-74
2021/01/08 12:22:16;;;;;;;14.02;4.30;;;8.20;39.30;;;;;;7712163;23;20387;-73
2021/01/08 12:25:17;;;;;;;13.57;4.40;;;8.00;39.60;;;;;;7710580;23;20016;-74
2021/01/08 12:28:18;;;;;;;12.52;4.85;;;7.90;39.80;;;;;;7684972;23;20012;-71
2021/01/08 12:31:25;;;;;;;10.20;4.97;;;7.80;39.90;;;;;;7684910;23;20012;-72
2021/01/08 12:34:26;;;;;;;13.38;5.15;;;7.70;40.10;;;;;;7708989;23;20321;-74
2021/01/08 12:37:28;;;;;;;11.73;3.90;;;7.60;40.30;;;;;;7711611;23;20013;-74
2021/01/08 12:40:28;;;;;;;12.30;4.82;;;7.60;40.60;;;;;;7686610;23;20020;-74
2021/01/08 12:43:29;;;;;;;9.38;4.03;;;7.60;40.70;;;;;;7692179;23;20051;-74
2021/01/08 12:46:30;;;;;;;9.90;4.68;;;7.60;40.70;;;;;;7650333;23;20360;-72
2021/01/08 12:49:31;;;;;;;14.20;4.35;;;7.60;40.60;;;;;;7678654;23;20028;-73
2021/01/08 12:52:32;;;;;;;10.73;4.82;;;7.60;40.70;;;;;;7672200;23;20040;-73
2021/01/08 12:55:34;;;;;;;11.75;6.10;;;7.60;40.80;;;;;;7672728;23;20028;-72
2021/01/08 12:58:35;;;;;;;6.50;3.05;;;7.60;40.90;;;;;;7674972;23;20013;-75
2021/01/08 13:01:37;;;;;;;16.08;4.18;;;7.60;40.90;;;;;;7675515;23;20017;-73
2021/01/08 13:04:41;;;;;;;11.05;4.78;;;7.60;40.80;;;;;;7684548;23;20024;-74
2021/01/08 13:07:42;;;;;;;12.80;3.90;;;7.60;40.70;;;;;;7654945;23;20032;-73
2021/01/08 13:10:44;;;;;;;7.45;3.55;;;7.70;40.70;;;;;;7713056;23;20428;-73
2021/01/08 13:13:45;;;;;;;12.32;3.88;;;7.60;40.40;;;;;;7686982;23;20020;-73
2021/01/08 13:16:46;;;;;;;9.07;3.88;;;7.50;40.50;;;;;;7682534;23;20301;-73
2021/01/08 13:19:47;;;;;;;11.77;5.00;;;7.50;40.60;;;;;;7635739;23;20013;-74
2021/01/08 13:22:47;;;;;;;6.72;3.10;;;7.50;40.70;;;;;;7655603;23;20028;-72
2021/01/08 13:25:48;;;;;;;10.05;4.28;;;7.50;40.60;;;;;;7694766;23;20067;-73
2021/01/08 13:28:49;;;;;;;8.70;3.95;;;7.60;40.50;;;;;;7665837;23;20077;-73
2021/01/08 13:31:50;;;;;;;11.73;4.25;;;7.60;40.50;;;;;;7717498;23;20021;-74
2021/01/08 13:34:51;;;;;;;8.07;3.15;;;7.60;40.30;;;;;;7692227;23;20348;-73
2021/01/08 13:37:52;;;;;;;10.45;3.95;;;7.50;40.10;;;;;;7686306;23;20023;-74
2021/01/08 13:40:53;;;;;;;8.82;4.28;;;7.50;40.30;;;;;;7668150;23;20012;-73
2021/01/08 13:43:54;;;;;;;11.82;4.10;;;7.50;40.60;;;;;;7651302;23;20023;-73
2021/01/08 13:46:55;;;;;;;7.38;3.67;;;7.50;40.50;;;;;;7692530;23;20027;-74
2021/01/08 13:49:57;;;;;;;10.27;3.92;;;7.50;40.40;;;;;;7646243;23;20017;-73
2021/01/08 13:52:57;;;;;;;18.35;4.45;;;7.50;40.50;;;;;;7678097;23;20028;-73
2021/01/08 13:55:58;;;;;;;7.10;3.63;;;7.60;40.70;;;;;;7682404;23;20021;-75
2021/01/08 13:58:59;;;;;;;9.55;4.03;;;7.60;40.60;;;;;;7652514;23;20309;-74
2021/01/08 14:02:00;;;;;;;7.95;4.05;;;7.70;40.60;;;;;;7651194;23;20083;-74
2021/01/08 14:05:02;;;;;;;10.32;4.95;;;7.70;40.60;;;;;;7675199;23;20437;-74
2021/01/08 14:08:03;;;;;;;11.40;4.45;;;7.70;40.70;;;;;;7645725;23;20331;-73
2021/01/08 14:11:07;;;;;;;9.60;4.45;;;7.70;40.80;;;;;;7651372;23;20013;-73
2021/01/08 14:14:10;;;;;;;9.35;4.43;;;7.70;40.70;;;;;;7675844;23;20025;-73
2021/01/08 14:17:11;;;;;;;10.05;4.80;;;7.70;41.40;;;;;;7651417;23;20013;-73
2021/01/08 14:20:12;;;;;;;13.98;5.20;;;7.70;40.90;;;;;;7653033;23;20036;-74
2021/01/08 14:23:14;;;;;;;14.63;4.75;;;7.70;41.00;;;;;;7653267;23;20096;-73
2021/01/08 14:26:22;;;;;;;11.77;5.53;;;7.60;41.10;;;;;;7680972;23;20417;-74
2021/01/08 14:29:23;;;;;;;9.82;4.70;;;7.60;41.20;;;;;;7672480;23;20292;-73
2021/01/08 14:32:24;;;;;;;15.00;4.88;;;7.60;41.30;;;;;;7675738;23;20016;-73
2021/01/08 14:35:25;;;;;;;9.73;4.95;;;7.60;41.40;;;;;;7676688;23;20005;-72
2021/01/08 14:38:26;;;;;;;8.30;4.40;;;7.70;41.60;;;;;;7675860;23;20016;-73
2021/01/08 14:41:27;;;;;;;9.82;4.60;;;7.70;41.60;;;;;;7675742;23;20036;-73
2021/01/08 14:44:28;;;;;;;12.00;5.07;;;7.70;41.60;;;;;;7675315;23;20091;-74
2021/01/08 14:47:30;;;;;;;11.90;5.10;;;7.80;41.70;;;;;;7675324;23;20086;-74
2021/01/08 14:50:31;;;;;;;15.70;5.93;;;7.80;41.70;;;;;;7674552;23;20348;-74
2021/01/08 14:53:32;;;;;;;22.35;5.82;;;7.80;42.00;;;;;;7675287;23;20728;-73
2021/01/08 14:56:52;;;;;;;16.77;5.70;;;7.80;42.40;;;;;;7675595;23;20064;-72
2021/01/08 14:59:55;;;;;;;10.27;5.05;;;7.70;42.60;;;;;;7674373;23;20024;-72
2021/01/08 15:02:56;;;;;;;13.07;5.88;;;7.70;42.90;;;;;;7675739;23;20017;-73
2021/01/08 15:05:57;;;;;;;13.02;4.90;;;7.70;43.10;;;;;;7675554;23;20047;-73
2021/01/08 15:08:58;;;;;;;18.33;6.40;;;7.70;43.20;;;;;;7676955;23;20119;-73
2021/01/08 15:11:59;;;;;;;16.77;6.03;;;7.70;43.40;;;;;;7651007;23;20017;-74
2021/01/08 15:15:00;;;;;;;13.35;5.60;;;7.70;43.50;;;;;;7676135;23;20013;-74
2021/01/08 15:18:01;;;;;;;14.60;6.00;;;7.70;43.50;;;;;;7675468;23;20016;-73
2021/01/08 15:21:05;;;;;;;18.70;7.40;;;7.80;43.50;;;;;;7677040;23;20044;-73
2021/01/08 15:24:06;;;;;;;20.90;5.55;;;7.90;43.60;;;;;;7679879;23;20013;-72
2021/01/08 15:27:07;;;;;;;15.73;6.35;;;7.90;43.70;;;;;;7687601;23;20009;-74
2021/01/08 15:30:09;;;;;;;16.20;6.55;;;7.90;43.80;;;;;;7687072;23;20076;-74
2021/01/08 15:33:10;;;;;;;24.38;8.45;;;7.90;43.90;;;;;;7688385;23;20013;-71
2021/01/08 15:36:13;;;;;;;13.88;5.70;;;7.90;44.00;;;;;;7685757;23;20012;-74
2021/01/08 15:39:15;;;;;;;15.10;6.30;;;7.90;44.20;;;;;;7678770;23;20122;-72
2021/01/08 15:42:16;;;;;;;18.05;6.32;;;7.90;44.40;;;;;;7677542;23;20076;-74
2021/01/08 15:45:17;;;;;;;15.60;6.60;;;7.80;44.40;;;;;;7682606;23;20469;-73
2021/01/08 15:48:21;;;;;;;14.98;6.45;;;7.80;44.50;;;;;;7683721;23;20366;-74
2021/01/08 15:51:29;;;;;;;9.65;5.00;;;7.80;44.40;;;;;;7682556;23;20092;-73
2021/01/08 15:54:30;;;;;;;10.95;4.22;;;7.70;43.80;;;;;;7689545;23;20032;-73
2021/01/08 15:57:31;;;;;;;20.90;4.60;;;7.70;43.60;;;;;;7684718;23;20013;-73
2021/01/08 16:00:32;;;;;;;13.50;5.07;;;7.60;43.20;;;;;;7677364;23;20027;-74